Time;durP1;ratioP1;P1;durP2;ratioP2;P2;SDS_P1;SDS_P2;PMS_P1;PMS_P2;Temp;Humidity;BMP_temperature;BMP_pressure;BME280_temperature;BME280_humidity;BME280_pressure;Samples;Min_cycle;Max_cycle;Signal;HPM_P1;HPM_P2
2022/08/13 00:01:20;;;;;;;22.25;9.05;;;;;;;18.08;61.35;100669.66;5073358;28;19932;-78
2022/08/13 00:03:52;;;;;;;16.27;8.23;;;;;;;17.88;61.49;100617.09;5071715;28;20056;-79
2022/08/13 00:09:22;;;;;;;18.65;8.40;;;;;;;17.95;61.87;100657.53;5072645;28;20459;-79
2022/08/13 00:14:59;;;;;;;16.65;7.97;;;;;;;17.90;61.88;100662.88;5072667;28;20060;-79
2022/08/13 00:17:33;;;;;;;16.33;8.68;;;;;;;17.84;61.81;100651.53;5072218;28;20091;-79
2022/08/13 00:20:24;;;;;;;15.93;7.63;;;;;;;17.81;61.88;100668.28;5072946;28;20510;-78
2022/08/13 00:22:54;;;;;;;15.60;7.82;;;;;;;17.64;62.13;100639.44;5072951;28;20056;-78
2022/08/13 00:25:28;;;;;;;21.23;8.50;;;;;;;17.54;62.12;100617.53;5072935;28;20078;-78
2022/08/13 00:28:16;;;;;;;14.80;8.20;;;;;;;17.67;61.98;100657.88;5072958;28;20084;-80
2022/08/13 00:30:46;;;;;;;14.13;7.90;;;;;;;17.57;62.25;100649.22;5072888;28;20118;-81
2022/08/13 00:33:20;;;;;;;17.67;8.50;;;;;;;17.37;62.29;100623.03;5072264;28;20488;-79
2022/08/13 00:36:08;;;;;;;17.95;7.85;;;;;;;17.49;62.56;100652.84;5072090;28;20067;-80
2022/08/13 00:38:36;;;;;;;13.95;7.95;;;;;;;17.39;62.57;100645.00;5072897;28;20098;-78
2022/08/13 00:41:05;;;;;;;18.98;7.78;;;;;;;17.42;62.61;100654.66;5054977;28;20052;-78
2022/08/13 00:43:33;;;;;;;17.10;8.50;;;;;;;17.38;62.53;100651.19;5072539;28;20475;-79
2022/08/13 00:46:02;;;;;;;20.15;8.52;;;;;;;17.28;62.64;100643.41;5072588;28;20508;-79
2022/08/13 00:48:43;;;;;;;16.92;8.10;;;;;;;17.26;62.89;100659.25;5071584;28;20419;-79
2022/08/13 00:51:16;;;;;;;13.32;8.45;;;;;;;17.11;62.88;100646.22;5072601;28;20121;-77
2022/08/13 00:54:05;;;;;;;13.38;8.23;;;;;;;17.10;62.99;100645.38;5071921;28;20045;-77
2022/08/13 00:56:37;;;;;;;13.05;8.18;;;;;;;17.04;63.37;100648.06;5082664;28;20476;-77
2022/08/13 00:59:13;;;;;;;12.95;8.27;;;;;;;17.03;63.46;100637.50;5064589;28;20049;-77
2022/08/13 01:01:43;;;;;;;11.75;8.18;;;;;;;17.05;63.41;100636.59;5082819;28;20052;-79
2022/08/13 01:04:19;;;;;;;15.63;7.80;;;;;;;17.08;63.53;100648.88;5073220;28;20056;-78
2022/08/13 01:06:57;;;;;;;13.13;8.07;;;;;;;17.05;63.61;100641.00;5072417;28;20512;-77
2022/08/13 01:09:29;;;;;;;13.18;8.20;;;;;;;16.99;63.87;100634.91;5072789;28;20412;-77
2022/08/13 01:12:21;;;;;;;12.43;8.57;;;;;;;17.01;64.05;100644.56;5071787;28;20059;-79
2022/08/13 01:14:55;;;;;;;11.43;7.75;;;;;;;16.90;64.21;100628.84;5076266;28;20135;-78
2022/08/13 01:17:24;;;;;;;13.63;8.30;;;;;;;16.98;64.20;100640.22;5078171;28;20048;-80
2022/08/13 01:20:23;;;;;;;15.68;8.55;;;;;;;16.95;64.05;100632.31;5076004;28;20052;-79
2022/08/13 01:23:03;;;;;;;14.63;8.63;;;;;;;16.87;64.23;100629.75;5074793;28;20053;-78
2022/08/13 01:25:31;;;;;;;14.57;8.75;;;;;;;16.89;64.16;100640.31;5075033;28;20041;-79
2022/08/13 01:28:19;;;;;;;14.45;8.45;;;;;;;16.87;64.40;100628.91;5075755;28;20090;-78
2022/08/13 01:30:50;;;;;;;17.95;9.40;;;;;;;16.87;64.15;100636.81;5074859;28;20060;-78
2022/08/13 01:33:18;;;;;;;;;;;;;;;16.59;64.01;100629.13;5076306;28;20557;-80
2022/08/13 01:35:46;;;;;;;16.85;9.75;;;;;;;16.74;64.27;100622.84;5074657;28;20342;-78
2022/08/13 01:38:21;;;;;;;14.95;9.32;;;;;;;16.73;64.37;100628.97;5075854;28;20117;-79
2022/08/13 01:40:53;;;;;;;21.73;15.15;;;;;;;16.74;65.30;100617.56;5075742;28;20060;-79
2022/08/13 01:43:20;;;;;;;20.25;12.93;;;;;;;16.76;64.77;100606.09;5077205;28;20055;-79
2022/08/13 01:45:52;;;;;;;19.73;12.50;;;;;;;16.96;64.12;100627.03;5076244;28;20138;-76
2022/08/13 01:51:31;;;;;;;17.15;10.45;;;;;;;16.94;63.85;100634.06;5075471;28;20053;-77
2022/08/13 01:54:11;;;;;;;16.58;10.07;;;;;;;16.69;63.56;100582.41;5075251;28;20424;-79
2022/08/13 01:57:02;;;;;;;15.13;10.30;;;;;;;16.76;63.94;100614.00;5076298;28;20101;-79
2022/08/13 01:59:34;;;;;;;13.95;9.75;;;;;;;16.65;64.06;100596.53;5076383;28;20059;-79
2022/08/13 02:02:27;;;;;;;15.68;9.70;;;;;;;16.78;63.92;100629.84;5075465;28;20056;-79
2022/08/13 02:05:12;;;;;;;17.33;11.57;;;;;;;16.80;64.12;100614.91;5075206;28;20056;-78
2022/08/13 02:08:00;;;;;;;;;;;;;;;16.64;63.81;100618.53;5074887;28;20055;-78
2022/08/13 02:10:35;;;;;;;21.25;13.35;;;;;;;16.86;64.05;100627.13;5075926;28;19931;-79
2022/08/13 02:13:13;;;;;;;18.75;13.02;;;;;;;16.94;63.66;100615.59;5075360;28;20048;-78
2022/08/13 02:15:47;;;;;;;15.50;12.20;;;;;;;17.12;63.27;100608.38;5075246;28;20075;-78
2022/08/13 02:18:21;;;;;;;16.05;13.05;;;;;;;17.24;62.92;100617.94;5074476;28;20135;-79
2022/08/13 02:21:06;;;;;;;18.00;12.45;;;;;;;17.23;62.63;100613.53;5073702;28;20131;-79
2022/08/13 02:23:56;;;;;;;15.93;11.77;;;;;;;17.40;62.45;100630.03;5074990;28;20052;-78
2022/08/13 02:26:28;;;;;;;18.02;11.90;;;;;;;17.57;61.99;100624.53;5074377;28;20062;-80
2022/08/13 02:29:03;;;;;;;19.38;12.27;;;;;;;17.70;61.52;100619.97;5073268;28;20052;-79
2022/08/13 02:31:34;;;;;;;18.48;12.30;;;;;;;17.64;61.16;100589.22;5074753;28;20102;-78
2022/08/13 02:34:24;;;;;;;19.48;12.95;;;;;;;17.86;61.30;100623.31;5074673;28;20060;-78
2022/08/13 02:36:53;;;;;;;17.15;11.57;;;;;;;17.96;61.04;100619.63;5074615;28;20055;-80
2022/08/13 02:39:40;;;;;;;15.68;10.48;;;;;;;18.06;60.39;100620.34;5075514;28;20515;-79
2022/08/13 02:42:10;;;;;;;;;;;;;;;17.91;60.76;100618.81;5075649;28;20135;-79
2022/08/13 02:44:47;;;;;;;16.70;11.90;;;;;;;18.11;61.14;100622.03;5074011;28;19924;-78
2022/08/13 02:47:19;;;;;;;17.67;11.02;;;;;;;17.97;60.08;100563.22;5075256;28;20051;-80
2022/08/13 02:50:07;;;;;;;;;;;;;;;18.18;60.20;100622.81;5075313;28;20122;-78
2022/08/13 02:52:38;;;;;;;20.45;12.05;;;;;;;18.39;59.77;100622.47;5075159;28;19924;-80
2022/08/13 02:55:28;;;;;;;19.45;11.57;;;;;;;18.60;59.16;100610.63;5074149;28;20428;-79
2022/08/13 02:58:02;;;;;;;18.55;11.75;;;;;;;18.85;58.97;100612.88;5057838;28;20563;-79
2022/08/13 03:00:30;;;;;;;17.02;10.60;;;;;;;18.96;57.83;100591.50;5074476;28;20583;-79
2022/08/13 03:03:03;;;;;;;17.85;10.48;;;;;;;19.35;57.07;100629.53;5074026;28;20056;-79
2022/08/13 03:05:31;;;;;;;;;;;;;;;19.48;57.36;100626.63;5074988;28;20517;-79
2022/08/13 03:08:19;;;;;;;17.50;11.43;;;;;;;20.82;54.14;100627.00;5074592;28;20011;-80
2022/08/13 03:11:06;;;;;;;15.95;10.45;;;;;;;23.06;47.96;100604.06;5087310;22;20056;-80
2022/08/13 03:13:37;;;;;;;16.60;10.90;;;;;;;24.77;44.12;100612.44;5032820;28;20591;-79
2022/08/13 03:16:16;;;;;;;14.52;10.15;;;;;;;25.66;41.22;100544.19;5034110;28;20144;-81
2022/08/13 03:18:48;;;;;;;15.95;10.07;;;;;;;27.22;38.87;100617.59;5033311;28;20053;-80
2022/08/13 03:21:23;;;;;;;15.52;10.63;;;;;;;28.10;37.27;100624.31;5033774;28;20421;-78
2022/08/13 03:24:13;;;;;;;14.90;10.13;;;;;;;28.89;35.13;100556.03;5034185;28;20049;-81
2022/08/13 03:27:00;;;;;;;14.60;9.77;;;;;;;30.38;33.24;100611.94;5033896;28;20054;-80
2022/08/13 03:29:28;;;;;;;12.95;9.55;;;;;;;31.41;31.45;100602.09;5034055;28;20060;-80
2022/08/13 03:32:17;;;;;;;16.08;9.85;;;;;;;32.06;29.86;100575.78;5033791;28;20060;-80
2022/08/13 03:35:00;;;;;;;13.48;9.95;;;;;;;32.55;29.01;100612.59;5033863;28;20060;-81
2022/08/13 03:37:38;;;;;;;15.57;10.48;;;;;;;32.99;28.87;100607.41;5033792;28;20067;-78
2022/08/13 03:40:11;;;;;;;16.30;9.77;;;;;;;33.50;27.86;100606.09;5033906;28;20057;-78
2022/08/13 03:42:45;;;;;;;13.23;10.35;;;;;;;34.28;26.68;100615.91;5033898;28;20089;-78
2022/08/13 03:45:21;;;;;;;15.48;9.50;;;;;;;34.90;26.03;100610.69;5032984;28;20092;-79
2022/08/13 03:47:49;;;;;;;17.98;10.02;;;;;;;35.26;25.26;100593.03;5033040;28;20104;-80
2022/08/13 03:50:17;;;;;;;14.82;9.13;;;;;;;35.34;24.92;100593.19;5033410;28;20050;-78
2022/08/13 03:52:45;;;;;;;14.80;9.38;;;;;;;35.51;24.50;100593.53;5033337;28;20057;-78
2022/08/13 03:55:15;;;;;;;13.70;10.05;;;;;;;34.92;25.51;100601.41;5033141;28;20502;-78
2022/08/13 03:57:44;;;;;;;14.77;9.93;;;;;;;33.39;27.19;100598.84;5033442;28;20140;-78
2022/08/13 04:00:39;;;;;;;13.98;10.25;;;;;;;31.03;30.72;100600.28;5033732;28;20053;-78
2022/08/13 04:03:17;;;;;;;12.52;9.90;;;;;;;29.33;33.41;100592.75;5032079;28;20571;-78
2022/08/13 04:05:50;;;;;;;15.85;9.93;;;;;;;28.18;35.56;100608.63;5033375;28;20088;-81
2022/08/13 04:08:28;;;;;;;17.25;10.55;;;;;;;27.26;37.02;100568.19;5033516;28;20053;-79
2022/08/13 04:10:57;;;;;;;12.52;9.60;;;;;;;26.60;38.69;100599.34;5033189;28;20053;-79
2022/08/13 04:13:26;;;;;;;15.95;10.10;;;;;;;26.21;39.45;100605.75;5032701;28;20061;-79
2022/08/13 04:16:18;;;;;;;;;;;;;;;25.41;40.46;100606.88;5031730;28;20045;-79
2022/08/13 04:18:48;;;;;;;17.48;10.60;;;;;;;25.50;41.22;100614.47;5033121;28;19924;-81
2022/08/13 04:21:17;;;;;;;16.67;10.40;;;;;;;25.16;41.87;100608.91;5032904;28;20071;-80
2022/08/13 04:23:51;;;;;;;18.48;10.18;;;;;;;25.01;42.50;100607.81;5032066;28;20103;-80
2022/08/13 04:26:24;;;;;;;15.77;9.75;;;;;;;24.98;42.77;100605.28;5036242;28;20474;-78
2022/08/13 04:29:04;;;;;;;12.80;9.02;;;;;;;24.83;43.21;100604.16;5034847;28;20100;-79
2022/08/13 04:31:35;;;;;;;13.90;9.05;;;;;;;24.56;43.68;100600.88;5032219;28;20049;-79
2022/08/13 04:34:15;;;;;;;16.47;9.77;;;;;;;24.48;43.83;100595.84;5032942;28;20053;-81
2022/08/13 04:37:03;;;;;;;;;;;;;;;24.07;44.37;100607.31;5033406;28;20060;-80
2022/08/13 04:39:30;;;;;;;13.88;7.95;;;;;;;24.29;44.40;100611.75;5033092;28;20005;-79
2022/08/13 04:42:18;;;;;;;13.32;8.07;;;;;;;24.14;44.28;100586.56;5032678;28;20072;-78
2022/08/13 04:45:06;;;;;;;12.32;7.28;;;;;;;24.24;44.53;100611.06;5032968;28;20053;-79
2022/08/13 04:47:41;;;;;;;10.95;6.97;;;;;;;24.20;44.41;100617.47;5033238;28;20073;-79
2022/08/13 04:50:10;;;;;;;10.43;6.63;;;;;;;24.15;44.85;100606.97;5036579;28;20540;-78
2022/08/13 04:52:39;;;;;;;8.98;6.22;;;;;;;24.30;43.99;100602.81;5035885;28;20053;-77
2022/08/13 04:55:11;;;;;;;8.43;6.50;;;;;;;24.47;43.98;100620.78;5036504;28;20107;-80
2022/08/13 04:57:41;;;;;;;10.25;6.20;;;;;;;24.53;43.78;100621.44;5036625;28;20049;-79
2022/08/13 05:00:32;;;;;;;5.93;5.07;;;;;;;24.56;43.00;100598.19;5036653;28;20060;-80
2022/08/13 05:03:19;;;;;;;11.43;5.95;;;;;;;24.63;43.17;100586.31;5034501;28;20057;-80
2022/08/13 05:05:52;;;;;;;10.00;6.20;;;;;;;24.82;43.27;100599.72;5036564;28;20107;-80
2022/08/13 05:08:19;;;;;;;9.52;6.35;;;;;;;24.88;42.92;100568.25;5036448;28;20064;-82
2022/08/13 05:10:50;;;;;;;7.95;6.15;;;;;;;25.29;41.97;100602.97;5036328;28;20532;-80
2022/08/13 05:13:29;;;;;;;9.65;6.45;;;;;;;25.19;41.75;100556.19;5035875;28;20525;-81
2022/08/13 05:16:11;;;;;;;11.60;6.45;;;;;;;25.41;41.91;100576.63;5036438;28;20054;-82
2022/08/13 05:18:52;;;;;;;11.73;6.75;;;;;;;25.61;41.58;100597.91;5036502;28;20111;-82
2022/08/13 05:21:22;;;;;;;8.90;6.53;;;;;;;25.49;42.29;100601.16;5036836;28;20191;-78
2022/08/13 05:23:59;;;;;;;11.70;7.20;;;;;;;25.34;42.57;100587.59;5035479;28;20053;-83
2022/08/13 05:26:47;;;;;;;9.55;6.38;;;;;;;25.53;42.52;100603.66;5036703;28;20056;-78
2022/08/13 05:29:27;;;;;;;13.40;6.75;;;;;;;25.79;41.93;100596.19;5036314;28;20402;-82
2022/08/13 05:31:54;;;;;;;9.40;6.28;;;;;;;25.84;41.56;100590.63;5035286;28;20536;-82
2022/08/13 05:34:26;;;;;;;9.93;6.57;;;;;;;25.93;41.94;100599.06;5036419;28;20114;-84
2022/08/13 05:36:55;;;;;;;9.57;6.43;;;;;;;26.05;41.72;100584.25;5041270;28;20117;-83
2022/08/13 05:39:43;;;;;;;13.95;6.68;;;;;;;26.08;41.46;100591.25;5049494;28;20084;-82
2022/08/13 05:42:18;;;;;;;10.15;6.30;;;;;;;25.95;41.99;100588.31;5051108;28;20057;-81
2022/08/13 05:44:56;;;;;;;8.63;6.15;;;;;;;25.99;41.95;100579.19;5049259;28;20057;-84
2022/08/13 05:47:28;;;;;;;10.43;6.70;;;;;;;26.12;41.83;100590.16;5047109;28;20144;-78
2022/08/13 05:50:13;;;;;;;9.48;6.20;;;;;;;26.14;41.84;100597.16;5048456;28;20061;-81
2022/08/13 05:52:43;;;;;;;9.60;6.88;;;;;;;26.14;42.13;100585.59;5048528;28;20057;-80
2022/08/13 05:55:15;;;;;;;11.45;6.50;;;;;;;26.27;42.17;100592.06;5044950;28;20053;-79
2022/08/13 05:58:04;;;;;;;11.82;6.65;;;;;;;26.40;42.26;100599.47;5039749;28;20056;-80
2022/08/13 06:03:39;;;;;;;12.30;6.13;;;;;;;26.33;41.23;100556.94;5047387;28;20053;-79
2022/08/13 06:06:28;;;;;;;10.40;5.40;;;;;;;26.44;40.11;100571.59;5048195;28;20057;-80
2022/08/13 06:09:04;;;;;;;10.73;6.22;;;;;;;26.65;40.55;100591.94;5047286;28;20056;-81
2022/08/13 06:11:40;;;;;;;11.95;5.85;;;;;;;26.69;40.24;100589.94;5047273;28;20054;-79
2022/08/13 06:14:31;;;;;;;14.38;7.10;;;;;;;26.50;41.10;100557.84;5048542;28;20053;-80
2022/08/13 06:17:02;;;;;;;14.55;7.35;;;;;;;26.68;41.05;100585.56;5040740;28;20508;-81
2022/08/13 06:19:32;;;;;;;11.25;7.13;;;;;;;26.71;40.85;100594.28;5036711;28;20103;-81
2022/08/13 06:22:03;;;;;;;10.82;6.68;;;;;;;26.78;40.81;100592.16;5036262;28;20063;-80
2022/08/13 06:24:38;;;;;;;7.28;3.80;;;;;;;26.54;38.94;100581.75;5035335;28;20053;-83
2022/08/13 06:27:24;;;;;;;6.32;3.45;;;;;;;26.66;38.86;100588.31;5035091;28;20585;-84
2022/08/13 06:30:18;;;;;;;6.85;4.10;;;;;;;26.84;38.79;100596.31;5035132;28;20426;-82
2022/08/13 06:33:02;;;;;;;7.20;4.03;;;;;;;26.90;38.62;100599.53;5035132;28;20057;-80
2022/08/13 06:35:55;;;;;;;9.15;4.50;;;;;;;26.85;38.87;100580.16;5035092;28;20060;-82
2022/08/13 06:38:35;;;;;;;8.35;4.47;;;;;;;26.93;38.73;100599.41;5035191;28;20053;-80
2022/08/13 06:41:10;;;;;;;8.88;4.60;;;;;;;27.05;38.64;100587.13;5034809;28;20116;-80
2022/08/13 06:43:41;;;;;;;8.05;4.07;;;;;;;27.11;38.57;100597.53;5034920;28;20064;-80
2022/08/13 06:46:28;;;;;;;6.90;4.40;;;;;;;27.16;38.59;100599.97;5034697;28;20061;-77
2022/08/13 06:48:58;;;;;;;7.03;4.53;;;;;;;27.26;38.59;100592.34;5034392;28;20061;-79
2022/08/13 06:51:31;;;;;;;3.95;3.58;;;;;;;26.79;38.09;100512.63;5034813;28;20053;-80
2022/08/13 06:54:08;;;;;;;4.90;3.67;;;;;;;27.39;37.63;100606.78;5031118;28;20053;-84
2022/08/13 06:56:56;;;;;;;3.92;3.53;;;;;;;27.53;37.39;100598.84;5028168;28;20057;-82
2022/08/13 06:59:46;;;;;;;4.22;3.83;;;;;;;27.69;37.48;100598.84;5014599;28;20141;-80
2022/08/13 07:02:34;;;;;;;4.00;3.60;;;;;;;27.80;37.10;100603.63;5014816;28;20513;-81
2022/08/13 07:05:04;;;;;;;4.22;3.28;;;;;;;27.93;36.33;100611.88;5013370;28;20058;-79
2022/08/13 07:07:35;;;;;;;6.07;3.17;;;;;;;27.74;36.06;100603.97;5014560;28;20544;-80
2022/08/13 07:10:03;;;;;;;3.53;3.20;;;;;;;27.29;36.25;100573.38;5012773;28;20530;-78
2022/08/13 07:12:32;;;;;;;3.30;3.00;;;;;;;27.45;36.31;100609.16;5012246;28;20057;-79
2022/08/13 07:15:00;;;;;;;4.30;3.08;;;;;;;27.39;35.95;100606.78;5014144;28;20071;-80
2022/08/13 07:17:29;;;;;;;4.88;2.95;;;;;;;27.29;36.53;100605.56;5013391;28;20462;-79
2022/08/13 07:20:04;;;;;;;3.88;2.97;;;;;;;27.39;36.40;100604.13;5031265;28;20053;-81
2022/08/13 07:22:49;;;;;;;3.47;2.75;;;;;;;27.47;35.93;100607.25;5033632;28;20056;-81
2022/08/13 07:25:39;;;;;;;4.55;3.17;;;;;;;27.42;36.09;100606.63;5034631;28;20057;-84
2022/08/13 07:28:29;;;;;;;7.55;4.00;;;;;;;27.55;36.18;100614.84;5033572;28;20132;-82
2022/08/13 07:31:26;;;;;;;5.70;4.18;;;;;;;27.46;36.34;100565.25;5030297;28;20168;-82
2022/08/13 07:34:14;;;;;;;4.13;3.72;;;;;;;27.82;36.10;100595.50;5032276;28;20515;-81
2022/08/13 07:36:43;;;;;;;4.75;3.75;;;;;;;27.22;36.26;100504.94;5032453;28;20081;-80
2022/08/13 07:39:24;;;;;;;5.35;3.30;;;;;;;27.54;36.18;100567.53;5033533;28;20136;-80
2022/08/13 07:41:55;;;;;;;6.20;4.17;;;;;;;27.69;36.10;100588.13;5033395;28;20106;-80
2022/08/13 07:44:30;;;;;;;4.15;3.50;;;;;;;27.66;35.81;100598.16;5033579;28;20056;-81
2022/08/13 07:47:10;;;;;;;4.03;3.20;;;;;;;27.62;35.06;100596.59;5034518;28;20046;-79
2022/08/13 07:49:44;;;;;;;4.55;3.33;;;;;;;27.55;35.13;100593.38;5033806;28;20050;-80
2022/08/13 07:52:13;;;;;;;4.43;3.90;;;;;;;27.08;35.65;100525.31;5033846;28;20061;-79
2022/08/13 07:54:46;;;;;;;6.40;3.78;;;;;;;27.68;35.57;100593.56;5033659;28;20071;-81
2022/08/13 07:57:17;;;;;;;6.47;3.42;;;;;;;27.80;35.09;100579.47;5033683;28;20057;-80
2022/08/13 07:59:54;;;;;;;6.85;4.25;;;;;;;27.87;35.13;100580.84;5033731;28;20080;-81
2022/08/13 08:02:43;;;;;;;7.78;4.72;;;;;;;28.11;35.91;100580.41;5033504;28;20049;-82
2022/08/13 08:05:13;;;;;;;45.42;13.52;;;;;;;28.26;37.32;100595.59;5033424;28;20144;-82
2022/08/13 08:07:41;;;;;;;7.82;5.05;;;;;;;28.44;36.01;100590.09;5032793;28;20415;-80
2022/08/13 08:10:29;;;;;;;25.60;8.52;;;;;;;28.42;36.60;100581.28;5033285;28;20064;-78
2022/08/13 08:12:59;;;;;;;6.50;5.00;;;;;;;28.40;36.51;100576.00;5033170;28;20172;-79
2022/08/13 08:15:27;;;;;;;8.68;4.50;;;;;;;28.45;35.77;100579.25;5031521;28;20186;-82
2022/08/13 08:18:14;;;;;;;9.10;4.70;;;;;;;28.32;35.65;100560.31;5032922;28;20053;-81
2022/08/13 08:21:08;;;;;;;10.60;6.45;;;;;;;28.04;35.89;100503.84;5031803;28;20080;-81
2022/08/13 08:23:59;;;;;;;7.80;5.40;;;;;;;28.49;35.43;100562.03;5031865;28;20087;-83
2022/08/13 08:26:33;;;;;;;9.48;4.97;;;;;;;28.55;35.16;100547.38;5032782;28;20088;-79
2022/08/13 08:29:09;;;;;;;8.18;5.03;;;;;;;28.70;35.35;100572.44;5034279;28;20053;-80
2022/08/13 08:31:47;;;;;;;8.98;5.22;;;;;;;28.59;34.85;100559.66;5039324;28;20498;-83
2022/08/13 08:34:29;;;;;;;5.93;4.25;;;;;;;28.63;34.75;100561.22;5032619;28;20417;-80
2022/08/13 08:36:57;;;;;;;10.05;4.68;;;;;;;28.47;34.99;100536.19;5032557;28;20438;-82
2022/08/13 08:42:38;;;;;;;4.47;4.10;;;;;;;28.72;34.92;100562.47;5033405;28;20088;-83
2022/08/13 08:45:24;;;;;;;6.00;4.40;;;;;;;28.52;34.65;100535.00;5032978;28;20532;-82
2022/08/13 08:48:15;;;;;;;9.15;5.15;;;;;;;28.72;34.66;100568.72;5033169;28;20060;-83
2022/08/13 08:50:42;;;;;;;5.35;4.57;;;;;;;28.73;34.73;100553.44;5033479;28;20045;-81
2022/08/13 08:53:20;;;;;;;8.38;4.90;;;;;;;28.78;34.57;100557.59;5038692;28;20115;-81
2022/08/13 08:56:08;;;;;;;7.32;4.47;;;;;;;28.81;34.56;100547.59;5043804;28;20076;-81
2022/08/13 08:58:40;;;;;;;6.40;4.40;;;;;;;28.91;34.27;100546.94;5043826;28;20127;-82
2022/08/13 09:01:13;;;;;;;9.48;4.65;;;;;;;28.92;33.91;100559.41;5043722;28;20063;-81
2022/08/13 09:03:42;;;;;;;11.68;4.70;;;;;;;28.88;34.05;100538.19;5044264;28;20049;-82
2022/08/13 09:06:24;;;;;;;8.45;4.78;;;;;;;29.16;33.88;100557.03;5043509;28;20506;-82
2022/08/13 09:09:06;;;;;;;7.32;4.70;;;;;;;29.45;33.16;100540.84;5035710;28;20049;-81
2022/08/13 09:11:36;;;;;;;8.23;4.43;;;;;;;29.70;32.33;100528.50;5032362;28;20065;-79
2022/08/13 09:14:26;;;;;;;7.18;4.72;;;;;;;29.83;32.31;100544.72;5032627;28;20135;-81
2022/08/13 09:16:58;;;;;;;7.03;4.65;;;;;;;29.64;32.25;100515.41;5032794;28;20059;-82
2022/08/13 09:19:27;;;;;;;6.53;4.45;;;;;;;29.76;31.92;100525.41;5032442;28;20082;-80
2022/08/13 09:22:21;;;;;;;4.93;3.83;;;;;;;29.74;32.37;100532.72;5033213;28;20508;-84
2022/08/13 09:24:58;;;;;;;5.40;4.20;;;;;;;29.68;31.75;100527.72;5032395;28;20055;-81
2022/08/13 09:27:28;;;;;;;6.40;4.70;;;;;;;29.93;31.89;100535.06;5032838;28;20068;-81
2022/08/13 09:30:18;;;;;;;6.20;4.28;;;;;;;29.90;31.23;100537.94;5032232;28;20145;-82
2022/08/13 09:32:57;;;;;;;6.72;4.50;;;;;;;29.77;31.01;100544.16;5032399;28;20049;-81
2022/08/13 09:35:28;;;;;;;5.25;3.55;;;;;;;29.70;30.50;100525.81;5035198;28;20424;-79
2022/08/13 09:38:06;;;;;;;6.93;4.07;;;;;;;29.82;31.08;100533.09;5036121;28;20144;-82
2022/08/13 09:40:45;;;;;;;4.70;4.20;;;;;;;30.04;30.73;100535.19;5036407;28;20139;-82
2022/08/13 09:43:38;;;;;;;7.63;4.25;;;;;;;30.02;30.62;100535.28;5035821;28;20103;-81
2022/08/13 09:46:16;;;;;;;5.05;3.95;;;;;;;29.79;30.92;100514.44;5035786;28;20079;-81
2022/08/13 09:48:51;;;;;;;5.43;3.92;;;;;;;29.49;31.40;100507.41;5035809;28;20041;-81
2022/08/13 09:51:21;;;;;;;5.57;3.90;;;;;;;29.32;31.52;100526.44;5034397;28;20046;-81
2022/08/13 09:54:09;;;;;;;9.40;4.20;;;;;;;29.09;31.99;100531.50;5035912;28;20556;-80
2022/08/13 09:56:38;;;;;;;7.82;4.13;;;;;;;29.11;32.39;100526.88;5035863;28;20057;-83
2022/08/13 09:59:11;;;;;;;7.28;3.95;;;;;;;29.10;31.92;100530.50;5035582;28;20441;-81
2022/08/13 10:01:41;;;;;;;5.15;4.13;;;;;;;29.12;32.09;100527.72;5035443;28;20544;-79
2022/08/13 10:04:26;;;;;;;5.60;3.63;;;;;;;29.09;31.80;100527.91;5035133;28;20134;-81
2022/08/13 10:06:59;;;;;;;4.45;4.05;;;;;;;28.77;32.35;100499.38;5035748;28;20417;-82
2022/08/13 10:09:27;;;;;;;6.38;3.72;;;;;;;28.78;32.29;100514.56;5035341;28;20061;-81
2022/08/13 10:11:59;;;;;;;5.47;3.50;;;;;;;28.69;31.81;100484.69;5035461;28;20061;-82
2022/08/13 10:14:48;;;;;;;5.30;3.38;;;;;;;28.84;31.96;100499.88;5035161;28;20059;-82
2022/08/13 10:17:42;;;;;;;2.88;2.67;;;;;;;29.06;31.42;100530.78;5034021;28;20060;-81
2022/08/13 10:20:24;;;;;;;3.60;3.00;;;;;;;28.98;30.94;100523.22;5035345;28;20053;-83
2022/08/13 10:22:53;;;;;;;4.65;3.00;;;;;;;29.09;30.58;100533.28;5035686;28;20053;-82
2022/08/13 10:25:23;;;;;;;5.47;3.08;;;;;;;29.10;30.42;100516.22;5035446;28;20080;-82
2022/08/13 10:28:19;;;;;;;3.70;3.13;;;;;;;29.18;30.78;100522.81;5035221;28;20045;-82
2022/08/13 10:31:10;;;;;;;4.55;3.20;;;;;;;29.13;30.56;100518.72;5037435;28;20140;-82
2022/08/13 10:33:58;;;;;;;9.32;3.55;;;;;;;29.03;30.53;100513.00;5041109;28;20049;-80
2022/08/13 10:36:28;;;;;;;3.53;3.22;;;;;;;29.05;30.58;100499.47;5042986;28;20397;-80
2022/08/13 10:39:06;;;;;;;4.78;2.90;;;;;;;29.14;30.26;100507.84;5039124;28;20056;-78
2022/08/13 10:41:39;;;;;;;5.88;2.97;;;;;;;29.18;30.66;100512.06;5035979;28;20437;-82
2022/08/13 10:44:27;;;;;;;4.30;3.20;;;;;;;29.23;30.47;100492.94;5034978;28;20054;-83
2022/08/13 10:46:59;;;;;;;6.78;3.20;;;;;;;29.25;30.24;100501.78;5034059;28;20049;-80
2022/08/13 10:49:29;;;;;;;4.00;3.35;;;;;;;29.28;30.30;100498.03;5034182;28;20433;-84
2022/08/13 10:52:00;;;;;;;5.65;3.05;;;;;;;29.29;30.76;100502.44;5034848;28;20041;-82
2022/08/13 10:54:34;;;;;;;3.42;3.13;;;;;;;29.15;30.53;100500.66;5034459;28;20466;-82
2022/08/13 10:57:07;;;;;;;7.00;3.10;;;;;;;28.95;31.09;100481.25;5035022;28;20139;-83
2022/08/13 10:59:41;;;;;;;4.38;3.60;;;;;;;29.03;30.77;100496.88;5034838;28;20097;-81
2022/08/13 11:02:09;;;;;;;3.85;3.50;;;;;;;28.90;30.95;100461.84;5034360;28;20061;-83
2022/08/13 11:04:45;;;;;;;5.18;3.60;;;;;;;29.25;31.09;100493.69;5034611;28;20053;-84
2022/08/13 11:07:22;;;;;;;7.25;3.67;;;;;;;29.24;30.86;100470.47;5034746;28;20058;-84
2022/08/13 11:09:51;;;;;;;6.43;3.50;;;;;;;29.38;30.61;100488.38;5034501;28;20068;-84
2022/08/13 11:12:19;;;;;;;5.32;3.60;;;;;;;29.22;30.96;100491.22;5033551;28;20514;-83
2022/08/13 11:14:50;;;;;;;4.65;3.10;;;;;;;29.13;31.18;100498.06;5034650;28;20053;-81
2022/08/13 11:17:19;;;;;;;7.07;3.38;;;;;;;29.07;31.36;100487.66;5034012;28;20080;-85
2022/08/13 11:20:13;;;;;;;5.72;3.28;;;;;;;28.72;31.47;100471.09;5034110;28;20053;-83
2022/08/13 11:22:46;;;;;;;3.50;3.10;;;;;;;28.76;31.88;100486.91;5033907;28;20056;-81
2022/08/13 11:25:17;;;;;;;4.25;3.08;;;;;;;28.59;31.96;100463.78;5034223;28;20060;-82
2022/08/13 11:28:12;;;;;;;6.03;3.53;;;;;;;28.41;32.44;100467.56;5034497;28;20048;-82
2022/08/13 11:30:47;;;;;;;4.63;3.40;;;;;;;28.19;32.33;100459.97;5034234;28;20053;-82
2022/08/13 11:33:22;;;;;;;3.53;3.03;;;;;;;28.13;32.43;100487.19;5034447;28;20144;-81
2022/08/13 11:36:08;;;;;;;5.13;3.50;;;;;;;28.00;32.22;100479.00;5033986;28;20053;-83
2022/08/13 11:38:39;;;;;;;3.88;3.15;;;;;;;28.14;32.22;100475.50;5033353;28;20053;-84
2022/08/13 11:41:07;;;;;;;5.82;3.33;;;;;;;28.32;32.51;100484.25;5032750;28;20053;-82
2022/08/13 11:43:46;;;;;;;7.73;3.73;;;;;;;28.34;32.48;100469.75;5033719;28;20056;-84
2022/08/13 11:46:25;;;;;;;5.15;4.05;;;;;;;28.26;32.42;100474.72;5033863;28;20061;-83
2022/08/13 11:48:52;;;;;;;7.78;3.85;;;;;;;28.17;32.77;100472.63;5035192;28;20504;-82
2022/08/13 11:51:37;;;;;;;4.43;3.83;;;;;;;28.08;32.50;100432.91;5037426;28;20057;-81
2022/08/13 11:54:20;;;;;;;3.85;3.55;;;;;;;28.28;32.48;100463.91;5042202;28;20076;-81
2022/08/13 11:57:04;;;;;;;6.00;3.95;;;;;;;28.38;32.44;100446.28;5041326;28;20057;-81
2022/08/13 11:59:39;;;;;;;6.57;4.05;;;;;;;28.56;32.00;100444.28;5041697;28;20053;-81
2022/08/13 12:02:12;;;;;;;5.25;3.65;;;;;;;28.72;31.84;100458.50;5042045;28;20084;-82
2022/08/13 12:04:45;;;;;;;5.90;3.65;;;;;;;28.44;31.54;100410.09;5040692;28;20077;-81
2022/08/13 12:07:24;;;;;;;6.40;3.80;;;;;;;28.63;31.85;100442.97;5038069;28;20061;-83
2022/08/13 12:09:53;;;;;;;3.80;3.50;;;;;;;28.89;31.24;100459.25;5033159;28;20072;-84
2022/08/13 12:12:25;;;;;;;6.43;3.72;;;;;;;29.12;31.05;100455.13;5033581;28;20063;-82
2022/08/13 12:14:58;;;;;;;4.63;3.55;;;;;;;29.19;31.04;100434.94;5033661;28;20060;-82
2022/08/13 12:17:27;;;;;;;5.68;4.22;;;;;;;29.19;30.83;100443.03;5034049;28;20049;-80
2022/08/13 12:20:17;;;;;;;4.93;3.72;;;;;;;29.11;31.22;100430.06;5033384;28;20060;-82
2022/08/13 12:22:52;;;;;;;6.53;4.25;;;;;;;29.18;30.63;100431.38;5034059;28;20080;-82